Time;durP1;ratioP1;P1;durP2;ratioP2;P2;SDS_P1;SDS_P2;PMS_P1;PMS_P2;Temp;Humidity;BMP_temperature;BMP_pressure;BME280_temperature;BME280_humidity;BME280_pressure;Samples;Min_cycle;Max_cycle;Signal;HPM_P1;HPM_P2
2023/06/14 00:01:35;;;;;;;7.15;3.15;;;;;;;19.25;85.65;101641.66;5026583;28;20037;-62
2023/06/14 00:04:01;;;;;;;6.15;2.83;;;;;;;19.24;86.43;101628.38;5095130;28;20061;-64
2023/06/14 00:06:28;;;;;;;6.35;3.17;;;;;;;19.21;87.23;101639.25;5027374;28;20053;-62
2023/06/14 00:08:54;;;;;;;6.68;3.05;;;;;;;19.13;88.58;101634.34;5026406;28;20438;-62
2023/06/14 00:11:19;;;;;;;6.05;3.17;;;;;;;19.11;88.51;101639.78;5027819;28;20029;-61
2023/06/14 00:13:45;;;;;;;12.02;3.50;;;;;;;19.08;89.51;101639.09;5026487;28;20029;-63
2023/06/14 00:16:11;;;;;;;17.35;3.42;;;;;;;19.00;90.29;101642.19;5027189;28;20040;-62
2023/06/14 00:18:36;;;;;;;7.72;3.08;;;;;;;19.01;90.78;101633.22;5026835;28;20014;-62
2023/06/14 00:21:02;;;;;;;8.82;3.75;;;;;;;18.95;92.45;101637.09;5027046;28;20037;-62
2023/06/14 00:23:27;;;;;;;10.25;3.20;;;;;;;18.98;92.41;101641.38;5026444;28;20029;-63
2023/06/14 00:25:52;;;;;;;9.00;3.72;;;;;;;18.92;92.67;101638.13;5076246;28;20099;-61
2023/06/14 00:28:18;;;;;;;5.53;2.90;;;;;;;18.97;92.50;101642.34;5007954;28;20057;-64
2023/06/14 00:30:46;;;;;;;4.63;3.20;;;;;;;18.98;93.03;101639.59;5007722;28;20018;-61
2023/06/14 00:33:11;;;;;;;10.02;3.42;;;;;;;18.88;94.26;101649.06;5007036;28;20054;-64
2023/06/14 00:35:36;;;;;;;7.30;3.78;;;;;;;18.97;93.00;101645.03;5092186;28;20167;-62
2023/06/14 00:38:02;;;;;;;8.35;3.50;;;;;;;18.97;93.46;101642.34;5025341;28;20049;-62
2023/06/14 00:40:27;;;;;;;6.93;3.65;;;;;;;18.82;94.29;101639.59;5026054;28;20061;-63
2023/06/14 00:42:53;;;;;;;8.55;3.47;;;;;;;18.87;93.55;101632.19;5093739;28;20112;-62
2023/06/14 00:45:18;;;;;;;7.07;3.30;;;;;;;18.85;93.63;101641.25;5027314;28;20104;-63
2023/06/14 00:47:45;;;;;;;3.92;3.33;;;;;;;18.91;93.42;101640.91;5026684;28;20094;-63
2023/06/14 00:50:11;;;;;;;8.18;3.40;;;;;;;18.89;93.26;101640.09;5026588;28;20051;-63
2023/06/14 00:52:36;;;;;;;11.82;3.88;;;;;;;18.78;93.88;101649.59;5025130;28;20033;-63
2023/06/14 00:55:02;;;;;;;4.97;3.35;;;;;;;18.76;93.19;101640.81;5026546;28;20026;-62
2023/06/14 00:57:29;;;;;;;11.43;3.17;;;;;;;18.70;93.21;101635.81;5026333;28;20034;-62
2023/06/14 00:59:55;;;;;;;4.32;3.47;;;;;;;18.75;92.87;101635.56;5026264;28;20104;-65
2023/06/14 01:02:20;;;;;;;7.32;3.58;;;;;;;18.64;93.15;101633.50;5026813;28;20545;-65
2023/06/14 01:04:49;;;;;;;10.50;3.33;;;;;;;18.64;91.84;101631.69;5027005;28;20031;-64
2023/06/14 01:07:21;;;;;;;;;;;;;;;18.72;90.78;101633.91;5093350;28;20017;-62
2023/06/14 01:10:01;;;;;;;7.00;3.28;;;;;;;18.62;90.94;101638.03;5026654;28;19912;-65
2023/06/14 01:12:43;;;;;;;6.72;3.60;;;;;;;18.53;90.91;101644.75;5026256;28;20032;-62
2023/06/14 01:15:09;;;;;;;8.32;3.50;;;;;;;18.54;90.38;101635.78;5094511;28;20397;-62
2023/06/14 01:17:35;;;;;;;8.27;3.83;;;;;;;18.51;90.42;101638.66;5094396;28;20022;-62
2023/06/14 01:20:09;;;;;;;5.90;3.10;;;;;;;18.46;90.24;101638.03;5094676;28;20419;-62
2023/06/14 01:22:35;;;;;;;12.23;3.70;;;;;;;18.44;89.60;101636.31;5023700;28;20049;-62
2023/06/14 01:25:00;;;;;;;8.63;3.22;;;;;;;18.40;89.94;101639.22;5093615;28;20112;-62
2023/06/14 01:27:28;;;;;;;6.60;3.65;;;;;;;18.37;89.93;101634.94;5029409;28;20072;-62
2023/06/14 01:29:56;;;;;;;7.43;3.75;;;;;;;18.29;90.05;101634.47;5034897;27;20068;-66
2023/06/14 01:32:23;;;;;;;10.38;3.70;;;;;;;18.28;89.96;101630.97;5032320;28;20071;-63
2023/06/14 01:34:50;;;;;;;11.63;3.33;;;;;;;18.26;89.89;101632.84;5087634;28;20106;-62
2023/06/14 01:37:15;;;;;;;8.55;3.50;;;;;;;18.23;90.24;101634.78;5091109;28;20328;-66
2023/06/14 01:39:43;;;;;;;9.75;3.65;;;;;;;18.22;89.95;101630.41;5091655;28;20021;-62
2023/06/14 01:42:11;;;;;;;3.67;2.58;;;;;;;18.18;89.53;101630.56;5085385;28;20083;-62
2023/06/14 01:44:36;;;;;;;4.97;3.10;;;;;;;18.17;89.61;101634.19;5023339;28;20026;-64
2023/06/14 01:47:01;;;;;;;5.13;3.40;;;;;;;18.17;89.94;101631.53;5091623;28;20041;-62
2023/06/14 01:49:27;;;;;;;8.20;3.58;;;;;;;18.11;89.60;101633.66;5091618;28;20470;-64
2023/06/14 01:51:52;;;;;;;9.50;3.35;;;;;;;18.04;90.42;101633.97;5091110;28;20043;-64
2023/06/14 01:54:18;;;;;;;5.85;3.33;;;;;;;18.04;90.00;101631.31;5058185;28;20556;-63
2023/06/14 01:56:43;;;;;;;6.70;3.33;;;;;;;17.97;89.86;101629.88;5108124;28;20413;-63
2023/06/14 01:59:08;;;;;;;3.67;3.30;;;;;;;17.86;89.94;101624.25;5107745;28;20678;-63
2023/06/14 02:01:34;;;;;;;5.10;3.05;;;;;;;17.84;89.28;101624.34;5109525;28;20020;-64
2023/06/14 02:03:59;;;;;;;11.20;3.35;;;;;;;17.84;88.26;101628.78;5055733;28;20819;-65
2023/06/14 02:06:26;;;;;;;8.73;3.40;;;;;;;17.83;87.48;101622.63;5023759;28;20112;-62
2023/06/14 02:08:51;;;;;;;14.95;3.40;;;;;;;17.77;87.68;101626.47;5023139;28;20458;-61
2023/06/14 02:11:17;;;;;;;7.32;2.95;;;;;;;17.78;88.20;101622.00;5023206;28;20508;-62
2023/06/14 02:13:42;;;;;;;9.15;3.28;;;;;;;17.82;88.24;101626.22;5091024;28;20470;-62
2023/06/14 02:16:07;;;;;;;4.63;3.30;;;;;;;17.74;88.54;101626.63;5090800;28;20057;-65
2023/06/14 02:18:33;;;;;;;5.15;3.17;;;;;;;17.67;88.83;101626.06;5023546;28;20029;-65
2023/06/14 02:20:58;;;;;;;12.00;3.20;;;;;;;17.58;90.01;101629.19;5022820;28;20029;-63
2023/06/14 02:23:23;;;;;;;4.78;3.10;;;;;;;17.61;89.73;101623.72;5022971;28;20669;-62
2023/06/14 02:25:49;;;;;;;6.95;3.58;;;;;;;17.48;90.20;101627.94;5025823;28;20159;-65
2023/06/14 02:28:14;;;;;;;7.43;3.92;;;;;;;17.42;90.81;101632.66;5028024;28;20082;-63
2023/06/14 02:30:40;;;;;;;11.98;3.15;;;;;;;17.38;91.04;101632.91;5027707;28;20026;-66
2023/06/14 02:33:06;;;;;;;5.70;3.28;;;;;;;17.36;91.59;101632.09;5027174;28;20052;-64
2023/06/14 02:35:31;;;;;;;11.13;3.15;;;;;;;17.23;92.17;101631.84;5027809;28;20448;-63
2023/06/14 02:37:56;;;;;;;10.25;3.58;;;;;;;17.22;91.37;101630.13;5027516;28;20110;-63
2023/06/14 02:40:22;;;;;;;7.63;3.25;;;;;;;17.16;91.93;101632.16;5057041;28;20038;-63
2023/06/14 02:42:48;;;;;;;9.57;3.35;;;;;;;17.12;92.38;101632.38;5094574;28;20035;-64
2023/06/14 02:45:13;;;;;;;6.15;3.00;;;;;;;17.09;92.23;101646.72;5111510;28;20028;-64
2023/06/14 02:47:38;;;;;;;10.80;3.17;;;;;;;17.08;92.62;101638.78;5112276;28;20467;-63
2023/06/14 02:50:04;;;;;;;7.20;3.45;;;;;;;17.10;91.89;101644.91;5111992;28;20051;-66
2023/06/14 02:52:29;;;;;;;6.55;3.25;;;;;;;17.15;91.52;101643.75;5110379;28;20395;-63
2023/06/14 02:54:55;;;;;;;11.27;3.38;;;;;;;17.18;91.00;101650.72;5111812;28;20507;-62
2023/06/14 02:57:21;;;;;;;9.70;3.35;;;;;;;17.03;91.29;101641.66;5111485;28;20027;-67
2023/06/14 02:59:47;;;;;;;23.33;3.40;;;;;;;17.04;90.50;101643.41;5112571;28;20042;-63
2023/06/14 03:02:12;;;;;;;6.53;3.20;;;;;;;17.05;90.92;101647.78;5042609;28;20053;-63
2023/06/14 03:04:38;;;;;;;7.32;3.60;;;;;;;17.09;90.30;101646.72;5028268;28;20550;-63
2023/06/14 03:07:08;;;;;;;10.63;3.22;;;;;;;17.08;90.03;101655.66;5026830;28;20040;-63
2023/06/14 03:09:37;;;;;;;5.97;3.38;;;;;;;17.05;90.20;101655.75;5028508;28;20032;-63
2023/06/14 03:12:04;;;;;;;4.55;2.92;;;;;;;17.11;89.38;101655.50;5023724;28;20461;-63
2023/06/14 03:14:30;;;;;;;5.20;3.55;;;;;;;17.15;88.79;101650.88;5076116;28;20038;-63
2023/06/14 03:16:56;;;;;;;7.50;3.20;;;;;;;17.12;88.52;101654.56;5007995;28;20026;-63
2023/06/14 03:19:22;;;;;;;10.52;3.17;;;;;;;17.14;88.54;101659.81;5008059;28;20034;-63
2023/06/14 03:21:48;;;;;;;7.13;3.17;;;;;;;17.15;88.04;101665.06;5008884;28;20022;-62
2023/06/14 03:24:16;;;;;;;6.85;2.83;;;;;;;17.10;88.76;101661.75;5011678;28;20100;-63
2023/06/14 03:26:41;;;;;;;11.13;3.25;;;;;;;17.12;88.17;101665.19;5028161;28;20025;-63
2023/06/14 03:29:07;;;;;;;4.22;2.75;;;;;;;17.12;88.93;101667.88;5095674;28;20032;-63
2023/06/14 03:31:34;;;;;;;10.65;3.05;;;;;;;17.16;88.52;101669.44;5028236;28;20049;-62
2023/06/14 03:34:00;;;;;;;5.90;2.83;;;;;;;17.21;88.67;101674.53;5028177;28;20481;-62
2023/06/14 03:36:25;;;;;;;9.80;3.00;;;;;;;17.11;89.99;101681.25;5027637;28;20060;-62
2023/06/14 03:38:51;;;;;;;9.02;3.22;;;;;;;17.21;88.71;101679.88;5027184;28;20850;-65
2023/06/14 03:41:16;;;;;;;15.00;2.90;;;;;;;17.28;88.17;101680.44;5027633;28;20025;-63
2023/06/14 03:43:41;;;;;;;5.82;3.22;;;;;;;17.20;88.90;101685.25;5027897;28;20030;-62
2023/06/14 03:46:07;;;;;;;7.80;2.85;;;;;;;17.24;88.86;101679.72;5027196;28;20026;-65
2023/06/14 03:48:32;;;;;;;5.82;3.30;;;;;;;17.23;88.45;101685.13;5027832;28;20026;-64
2023/06/14 03:50:58;;;;;;;7.47;3.08;;;;;;;17.26;88.30;101682.31;5027504;28;20109;-63
2023/06/14 03:53:23;;;;;;;7.50;3.08;;;;;;;17.39;87.55;101696.75;5029198;28;20481;-64
2023/06/14 03:55:49;;;;;;;7.38;3.22;;;;;;;17.36;87.76;101690.69;5027947;28;20025;-64
2023/06/14 03:58:16;;;;;;;8.55;3.13;;;;;;;17.40;87.42;101701.13;5026530;28;20435;-67
2023/06/14 04:00:41;;;;;;;4.07;2.95;;;;;;;17.35;88.43;101697.84;5027384;28;20116;-67
2023/06/14 04:03:06;;;;;;;7.72;3.20;;;;;;;17.47;87.49;101703.50;5026189;28;20657;-66
2023/06/14 04:05:32;;;;;;;6.20;3.15;;;;;;;17.45;87.57;101698.25;5026830;28;20444;-65
2023/06/14 04:07:59;;;;;;;4.82;2.90;;;;;;;17.56;87.47;101697.72;5025501;28;20108;-65
2023/06/14 04:10:25;;;;;;;4.97;3.03;;;;;;;17.56;87.91;101703.03;5027181;28;20049;-64
2023/06/14 04:12:51;;;;;;;8.60;2.80;;;;;;;17.63;87.40;101699.13;5026131;28;20064;-67
2023/06/14 04:15:16;;;;;;;3.83;2.65;;;;;;;17.71;86.88;101713.88;5025947;28;20397;-67
2023/06/14 04:17:42;;;;;;;8.20;2.88;;;;;;;17.72;86.54;101711.13;5093736;28;20029;-66
2023/06/14 04:20:09;;;;;;;7.68;3.03;;;;;;;17.73;86.37;101709.34;5026118;28;20026;-67
2023/06/14 04:22:36;;;;;;;6.35;4.05;;;;;;;17.74;86.73;101716.38;5025963;28;20018;-67
2023/06/14 04:25:01;;;;;;;7.18;2.58;;;;;;;17.71;87.44;101706.75;5020239;28;20029;-66
2023/06/14 04:27:27;;;;;;;11.43;3.10;;;;;;;17.68;88.01;101707.78;5026793;28;20022;-66
2023/06/14 04:29:56;;;;;;;14.93;3.33;;;;;;;17.74;87.66;101711.06;5026144;28;20078;-67
2023/06/14 04:32:25;;;;;;;7.05;2.60;;;;;;;17.81;87.32;101709.78;5025800;28;20041;-67
2023/06/14 04:34:53;;;;;;;5.70;2.78;;;;;;;17.88;87.90;101713.88;5026346;28;20017;-66
2023/06/14 04:37:20;;;;;;;5.77;2.83;;;;;;;18.05;86.94;101712.13;5026047;28;20082;-66
2023/06/14 04:39:46;;;;;;;8.35;3.20;;;;;;;17.94;87.03;101718.91;5026506;28;20033;-66
2023/06/14 04:42:13;;;;;;;7.03;2.80;;;;;;;18.01;86.69;101714.13;5026152;28;20037;-65
2023/06/14 04:44:39;;;;;;;2.60;2.40;;;;;;;17.97;87.57;101712.53;5026502;28;20026;-67
2023/06/14 04:47:06;;;;;;;12.45;2.83;;;;;;;18.10;87.17;101710.16;5025954;28;20021;-68
2023/06/14 04:49:33;;;;;;;5.93;2.70;;;;;;;18.15;86.80;101712.56;5025450;28;20026;-67
2023/06/14 04:52:01;;;;;;;6.43;3.15;;;;;;;18.08;86.73;101719.97;5025298;28;20074;-71
2023/06/14 04:54:26;;;;;;;10.00;3.10;;;;;;;18.10;86.97;101714.56;5026256;28;20025;-66
2023/06/14 04:56:53;;;;;;;6.85;2.78;;;;;;;18.07;86.65;101715.59;5026584;28;20028;-66
2023/06/14 04:59:18;;;;;;;5.78;2.83;;;;;;;18.22;86.60;101716.66;5025733;28;20026;-68
2023/06/14 05:01:48;;;;;;;6.30;2.63;;;;;;;18.26;86.42;101712.00;5025084;28;20034;-66
2023/06/14 05:04:17;;;;;;;7.45;3.10;;;;;;;18.16;86.61;101717.84;5021595;28;20038;-67
2023/06/14 05:06:47;;;;;;;7.57;2.70;;;;;;;18.22;86.82;101718.44;5025619;28;20021;-65
2023/06/14 05:09:14;;;;;;;3.25;2.65;;;;;;;18.31;86.29;101712.63;5026185;28;20139;-64
2023/06/14 05:11:39;;;;;;;8.43;3.30;;;;;;;18.31;86.81;101720.63;5026173;28;20096;-65
2023/06/14 05:14:06;;;;;;;9.70;3.20;;;;;;;18.27;86.82;101719.06;5093299;28;20418;-67
2023/06/14 05:16:31;;;;;;;6.35;2.60;;;;;;;18.33;86.41;101717.88;5025293;28;20445;-67
2023/06/14 05:18:58;;;;;;;9.43;2.90;;;;;;;18.39;85.35;101721.06;5024307;28;20053;-66
2023/06/14 05:21:23;;;;;;;3.80;2.95;;;;;;;18.28;85.64;101720.78;5024742;28;20024;-67
2023/06/14 05:23:48;;;;;;;11.07;2.85;;;;;;;18.47;83.91;101730.47;5024249;28;20053;-67
2023/06/14 05:26:14;;;;;;;4.00;2.50;;;;;;;18.55;83.20;101730.94;5024246;28;20104;-65
2023/06/14 05:28:40;;;;;;;11.25;2.95;;;;;;;18.55;83.85;101733.59;5024629;28;20129;-65
2023/06/14 05:31:05;;;;;;;5.72;2.85;;;;;;;18.66;82.86;101730.38;5089414;28;20017;-67
2023/06/14 05:33:30;;;;;;;10.38;3.15;;;;;;;18.60;82.45;101725.34;5024770;28;20041;-67
2023/06/14 05:35:56;;;;;;;7.38;2.90;;;;;;;18.76;81.85;101734.25;5024905;28;20045;-66
2023/06/14 05:38:21;;;;;;;12.57;3.15;;;;;;;18.69;81.38;101725.72;5024180;28;20124;-67
2023/06/14 05:40:47;;;;;;;6.22;2.50;;;;;;;18.87;80.98;101730.97;5025013;28;20470;-67
2023/06/14 05:43:12;;;;;;;5.78;3.40;;;;;;;18.77;81.04;101732.44;5024237;28;20036;-67
2023/06/14 05:45:37;;;;;;;7.28;2.78;;;;;;;18.82;80.52;101735.72;5024495;28;20018;-68
2023/06/14 05:48:03;;;;;;;7.20;3.03;;;;;;;18.86;79.08;101733.72;5024096;28;20068;-65
2023/06/14 05:50:28;;;;;;;15.38;3.25;;;;;;;18.93;78.95;101735.97;5024458;28;20018;-67
2023/06/14 05:52:54;;;;;;;10.63;2.80;;;;;;;19.12;78.56;101742.16;5023063;28;20136;-67
2023/06/14 05:55:19;;;;;;;5.75;3.05;;;;;;;19.04;78.37;101745.22;5024308;28;20113;-67
2023/06/14 05:57:45;;;;;;;5.22;2.80;;;;;;;19.15;77.85;101750.00;5023519;28;20107;-69
2023/06/14 06:00:11;;;;;;;6.05;3.13;;;;;;;19.16;78.12;101749.91;5023877;28;20040;-68
2023/06/14 06:02:37;;;;;;;5.43;2.85;;;;;;;19.05;79.58;101754.94;5027611;28;20040;-67
2023/06/14 06:05:02;;;;;;;6.55;2.85;;;;;;;19.21;78.47;101746.97;5024876;28;20401;-68
2023/06/14 06:07:28;;;;;;;9.25;2.83;;;;;;;19.31;76.93;101744.63;5027421;28;20029;-66
2023/06/14 06:09:53;;;;;;;7.10;2.80;;;;;;;19.40;75.33;101741.44;5028240;28;20032;-67
2023/06/14 06:12:18;;;;;;;4.55;2.42;;;;;;;19.38;75.33;101750.50;5028565;28;20029;-67
2023/06/14 06:14:44;;;;;;;4.55;3.13;;;;;;;19.45;75.16;101744.69;5028441;28;20034;-67
2023/06/14 06:17:09;;;;;;;5.78;2.88;;;;;;;19.52;75.14;101749.69;5028149;28;20323;-68
2023/06/14 06:19:34;;;;;;;10.00;3.30;;;;;;;19.17;74.95;101750.75;5028513;28;20021;-67
2023/06/14 06:22:00;;;;;;;7.63;3.08;;;;;;;19.33;75.70;101748.09;5027481;28;20022;-67
2023/06/14 06:24:25;;;;;;;8.77;2.83;;;;;;;19.59;73.98;101755.56;5028394;28;20104;-67
2023/06/14 06:26:50;;;;;;;9.95;3.17;;;;;;;19.76;72.70;101751.91;5027968;28;20031;-66
2023/06/14 06:29:16;;;;;;;6.38;2.72;;;;;;;19.80;72.36;101759.66;5028450;28;20116;-67
2023/06/14 06:31:41;;;;;;;7.28;2.75;;;;;;;19.66;74.30;101755.09;5028012;28;20132;-67
2023/06/14 06:34:06;;;;;;;7.85;2.65;;;;;;;19.73;73.49;101758.28;5096208;28;20030;-68
2023/06/14 06:36:32;;;;;;;6.30;3.33;;;;;;;19.60;74.15;101763.50;5027319;28;20477;-67
2023/06/14 06:38:57;;;;;;;10.15;3.28;;;;;;;20.02;71.95;101763.75;5027923;28;20381;-67
2023/06/14 06:41:23;;;;;;;6.40;2.70;;;;;;;20.02;71.95;101763.75;5028357;28;20026;-68
2023/06/14 06:43:48;;;;;;;6.78;3.00;;;;;;;20.11;71.77;101767.72;5028287;28;20533;-68
2023/06/14 06:46:14;;;;;;;8.10;2.97;;;;;;;20.35;70.42;101772.53;5026563;28;20041;-67
2023/06/14 06:48:39;;;;;;;4.97;3.13;;;;;;;20.54;70.60;101776.75;5027779;28;20026;-65
2023/06/14 06:51:05;;;;;;;12.98;3.08;;;;;;;20.64;70.19;101777.03;5027482;28;20030;-65
2023/06/14 06:53:30;;;;;;;9.57;2.92;;;;;;;20.62;71.03;101785.16;5026589;28;20469;-64
2023/06/14 06:55:56;;;;;;;5.43;2.95;;;;;;;20.47;70.72;101778.97;5026437;28;20026;-64
2023/06/14 06:58:22;;;;;;;7.78;3.10;;;;;;;20.63;70.12;101784.22;5027545;28;20057;-63
2023/06/14 07:00:47;;;;;;;9.68;3.03;;;;;;;20.72;69.71;101785.47;5027957;28;20029;-63
2023/06/14 07:03:12;;;;;;;6.40;3.00;;;;;;;20.92;69.19;101778.03;5026303;28;20508;-63
2023/06/14 07:05:38;;;;;;;7.03;2.80;;;;;;;20.96;69.40;101791.09;5025630;28;20377;-64
2023/06/14 07:08:03;;;;;;;5.35;2.80;;;;;;;21.09;68.57;101787.66;5023212;28;20025;-62
2023/06/14 07:10:29;;;;;;;5.40;2.85;;;;;;;21.28;67.29;101790.00;5088842;27;20129;-64
2023/06/14 07:12:54;;;;;;;8.65;3.00;;;;;;;21.38;65.32;101794.78;5086145;28;20025;-65
2023/06/14 07:15:20;;;;;;;6.82;2.90;;;;;;;21.40;62.22;101804.44;5040636;28;20061;-63
2023/06/14 07:17:45;;;;;;;4.13;2.70;;;;;;;21.65;60.53;101796.63;5025817;28;20035;-64
2023/06/14 07:20:15;;;;;;;7.93;2.95;;;;;;;21.54;60.25;101806.22;5026198;27;20150;-66
2023/06/14 07:22:41;;;;;;;5.35;2.70;;;;;;;21.75;58.29;101803.13;5024512;28;20055;-65
2023/06/14 07:25:13;;;;;;;8.65;2.72;;;;;;;21.78;58.29;101808.28;5090125;28;20105;-64
2023/06/14 07:27:40;;;;;;;8.82;2.70;;;;;;;21.87;57.34;101801.44;5022842;28;20034;-63
2023/06/14 07:30:06;;;;;;;15.55;3.00;;;;;;;22.01;57.88;101802.34;5028627;28;20501;-63
2023/06/14 07:32:31;;;;;;;10.88;3.30;;;;;;;21.93;58.08;101803.72;5024364;28;20068;-65
2023/06/14 07:34:57;;;;;;;7.68;2.70;;;;;;;22.03;57.53;101805.78;5022666;28;20026;-64
2023/06/14 07:37:22;;;;;;;7.18;2.75;;;;;;;22.19;57.21;101806.44;5016020;28;20052;-64
2023/06/14 07:39:48;;;;;;;6.53;2.88;;;;;;;22.26;55.59;101806.00;5062013;28;20024;-61
2023/06/14 07:42:13;;;;;;;10.57;2.75;;;;;;;22.41;55.05;101804.97;5042955;28;20385;-64
2023/06/14 07:44:38;;;;;;;4.10;2.60;;;;;;;22.44;54.18;101803.88;5019521;28;20508;-63
2023/06/14 07:47:04;;;;;;;4.40;3.10;;;;;;;22.53;53.35;101807.75;5023500;28;20486;-63
2023/06/14 07:49:29;;;;;;;8.52;2.78;;;;;;;22.58;54.91;101819.09;5028619;28;20042;-62
2023/06/14 07:51:55;;;;;;;7.20;3.25;;;;;;;22.59;54.49;101815.41;5017869;28;20508;-65
2023/06/14 07:54:24;;;;;;;6.82;2.95;;;;;;;22.46;53.65;101818.91;5023740;28;20040;-68
2023/06/14 07:56:50;;;;;;;6.68;2.63;;;;;;;22.70;52.81;101818.19;5021257;28;20042;-65
2023/06/14 07:59:15;;;;;;;9.77;2.83;;;;;;;22.89;52.92;101832.16;5021235;28;20032;-63
2023/06/14 08:01:46;;;;;;;6.97;2.78;;;;;;;23.02;52.54;101829.47;5023642;28;20059;-63
2023/06/14 08:04:12;;;;;;;5.80;2.95;;;;;;;23.16;51.49;101823.97;5028784;28;20045;-63
2023/06/14 08:06:38;;;;;;;6.03;2.78;;;;;;;23.07;51.50;101838.06;5085434;28;20947;-63
2023/06/14 08:09:05;;;;;;;8.43;2.80;;;;;;;23.25;51.01;101832.31;5017988;28;20146;-63
2023/06/14 08:11:30;;;;;;;5.45;2.72;;;;;;;23.20;50.60;101830.81;5024786;28;20025;-65
2023/06/14 08:13:55;;;;;;;6.65;2.42;;;;;;;23.39;50.01;101826.81;5024432;28;20392;-63
2023/06/14 08:16:21;;;;;;;4.75;2.50;;;;;;;23.53;49.75;101830.31;5025919;28;20380;-64
2023/06/14 08:18:46;;;;;;;8.93;3.00;;;;;;;23.58;51.12;101831.72;5094455;28;20109;-65
2023/06/14 08:21:12;;;;;;;11.07;2.85;;;;;;;23.56;51.87;101832.78;5025110;28;20174;-65
2023/06/14 08:23:37;;;;;;;7.30;2.90;;;;;;;23.59;51.12;101827.19;5023088;28;20056;-64
2023/06/14 08:26:04;;;;;;;6.18;2.90;;;;;;;23.60;50.47;101831.59;5023322;28;20469;-65
2023/06/14 08:28:29;;;;;;;3.67;2.70;;;;;;;23.70;49.50;101827.25;5022760;28;20029;-62
2023/06/14 08:30:55;;;;;;;5.00;2.97;;;;;;;23.93;49.01;101823.81;5020995;28;20031;-64
2023/06/14 08:33:20;;;;;;;4.82;2.47;;;;;;;24.07;49.26;101829.00;5039709;28;20132;-66
2023/06/14 08:35:46;;;;;;;5.45;2.80;;;;;;;23.92;49.47;101828.31;5037114;28;20059;-63
2023/06/14 08:38:11;;;;;;;6.25;2.83;;;;;;;24.12;47.96;101828.63;5031451;28;20066;-63
2023/06/14 08:40:38;;;;;;;5.03;2.80;;;;;;;24.27;47.03;101825.78;5017929;28;20029;-62
2023/06/14 08:43:03;;;;;;;4.85;2.40;;;;;;;24.23;47.32;101831.38;5090026;28;20070;-63
2023/06/14 08:45:29;;;;;;;8.70;2.75;;;;;;;24.25;47.72;101827.72;5023071;28;20497;-65
2023/06/14 08:47:59;;;;;;;5.50;2.92;;;;;;;24.38;47.80;101828.47;5022199;28;20419;-63
2023/06/14 08:50:31;;;;;;;11.73;2.67;;;;;;;24.46;47.97;101827.88;5060754;28;20031;-63
2023/06/14 08:53:01;;;;;;;6.40;2.65;;;;;;;23.97;47.88;101819.91;5023523;28;20037;-63
2023/06/14 08:55:29;;;;;;;4.53;2.15;;;;;;;24.23;47.99;101825.16;5023270;28;20021;-66
2023/06/14 08:57:57;;;;;;;8.68;2.58;;;;;;;24.48;46.54;101818.69;5085528;28;20101;-67
2023/06/14 09:00:24;;;;;;;9.57;2.97;;;;;;;24.71;46.48;101821.44;5021504;28;20481;-68
2023/06/14 09:02:50;;;;;;;4.38;2.60;;;;;;;24.85;46.06;101819.47;5022400;28;20021;-66
2023/06/14 09:05:18;;;;;;;3.58;2.10;;;;;;;24.95;45.47;101828.56;5021817;28;20036;-65
2023/06/14 09:07:44;;;;;;;4.90;2.30;;;;;;;24.86;44.54;101827.44;5021244;28;20029;-61
2023/06/14 09:10:11;;;;;;;11.95;2.88;;;;;;;25.13;43.75;101833.44;5020175;28;20454;-61
2023/06/14 09:12:36;;;;;;;7.10;2.40;;;;;;;25.19;43.05;101832.97;5013736;28;20061;-61
2023/06/14 09:15:05;;;;;;;6.05;2.67;;;;;;;25.27;42.04;101832.34;5021663;28;20105;-61
2023/06/14 09:17:37;;;;;;;5.47;2.67;;;;;;;25.29;42.34;101834.91;5022376;28;20018;-62
2023/06/14 09:20:06;;;;;;;13.10;2.60;;;;;;;25.53;41.89;101840.16;5021042;28;20460;-64
2023/06/14 09:22:32;;;;;;;12.18;2.97;;;;;;;25.45;41.59;101842.59;5028542;28;20022;-63
2023/06/14 09:24:58;;;;;;;5.47;2.60;;;;;;;25.60;41.96;101843.22;5028005;28;20165;-62
2023/06/14 09:27:26;;;;;;;13.20;2.22;;;;;;;25.65;41.71;101840.13;5021798;28;20529;-64
2023/06/14 09:29:51;;;;;;;4.17;2.20;;;;;;;25.74;41.67;101831.28;5022061;28;20045;-64
2023/06/14 09:32:16;;;;;;;7.28;2.13;;;;;;;25.73;41.39;101840.34;5021989;28;20300;-63
2023/06/14 09:34:42;;;;;;;6.85;2.35;;;;;;;26.04;41.54;101831.50;5022233;28;20026;-64
2023/06/14 09:37:07;;;;;;;5.60;2.53;;;;;;;25.94;41.20;101840.38;5021024;28;20082;-64
2023/06/14 09:39:32;;;;;;;4.97;2.10;;;;;;;25.92;41.01;101838.81;5093941;28;20035;-64
2023/06/14 09:41:58;;;;;;;4.43;2.20;;;;;;;26.08;41.78;101838.38;5023231;28;20480;-64
2023/06/14 09:44:28;;;;;;;3.58;2.20;;;;;;;26.28;40.79;101835.81;5022101;28;20466;-64
2023/06/14 09:46:55;;;;;;;3.65;2.42;;;;;;;26.30;42.11;101836.53;5015981;28;20333;-64
2023/06/14 09:49:21;;;;;;;5.40;2.60;;;;;;;26.35;42.03;101837.03;5023309;28;20033;-64
2023/06/14 09:51:49;;;;;;;4.25;1.90;;;;;;;26.59;39.12;101836.75;5019863;28;20056;-65
2023/06/14 09:54:15;;;;;;;;;;;;;;;26.54;38.74;101830.00;5083945;28;20040;-65
2023/06/14 09:56:42;;;;;;;4.07;2.40;;;;;;;26.77;39.11;101830.72;5016738;28;19921;-65
2023/06/14 09:59:09;;;;;;;3.92;2.20;;;;;;;26.72;39.24;101835.66;5002652;28;20043;-63
2023/06/14 10:01:38;;;;;;;5.65;2.08;;;;;;;26.73;38.29;101834.69;5070434;28;20033;-63
2023/06/14 10:04:05;;;;;;;5.63;2.40;;;;;;;26.94;38.39;101836.47;5004050;28;20045;-64
2023/06/14 10:06:31;;;;;;;6.22;2.15;;;;;;;26.79;38.35;101839.53;5003809;28;20032;-64
2023/06/14 10:09:01;;;;;;;4.25;2.00;;;;;;;26.85;37.88;101840.84;5003928;28;20482;-64
2023/06/14 10:11:27;;;;;;;5.20;2.28;;;;;;;26.70;38.33;101837.66;5002921;28;20022;-63
2023/06/14 10:13:53;;;;;;;4.70;2.00;;;;;;;26.94;37.54;101841.88;5002653;28;20110;-64
2023/06/14 10:16:32;;;;;;;6.50;2.03;;;;;;;27.00;36.17;101839.50;5003481;28;20048;-63
2023/06/14 10:19:08;;;;;;;4.78;2.00;;;;;;;27.05;34.01;101836.38;5070651;28;20466;-65
2023/06/14 10:21:48;;;;;;;6.18;1.80;;;;;;;27.20;35.17;101839.56;5069667;28;20351;-64
2023/06/14 10:24:18;;;;;;;4.15;1.85;;;;;;;27.27;34.84;101839.84;5002685;28;20029;-64
2023/06/14 10:27:10;;;;;;;6.55;2.22;;;;;;;27.25;34.38;101837.31;5004223;28;20034;-64
2023/06/14 10:30:01;;;;;;;4.07;2.10;;;;;;;27.04;35.19;101834.69;5004938;28;20110;-63
2023/06/14 10:32:28;;;;;;;9.07;1.90;;;;;;;27.38;33.88;101830.78;5003953;28;20129;-65
2023/06/14 10:34:56;;;;;;;3.22;1.90;;;;;;;27.49;33.89;101838.78;5004107;28;20026;-64
2023/06/14 10:37:22;;;;;;;7.28;1.70;;;;;;;27.09;33.92;101826.16;5071305;28;20026;-65
2023/06/14 10:39:47;;;;;;;1.77;1.67;;;;;;;27.40;34.15;101839.63;5072000;28;20433;-64
2023/06/14 10:42:13;;;;;;;3.22;1.50;;;;;;;27.56;33.05;101836.38;5071641;28;20054;-64
2023/06/14 10:44:55;;;;;;;2.72;1.50;;;;;;;27.61;33.31;101836.81;5003853;28;20434;-64
2023/06/14 10:47:39;;;;;;;2.33;1.60;;;;;;;28.04;33.54;101841.97;5006562;28;20026;-65
2023/06/14 10:50:07;;;;;;;3.83;1.60;;;;;;;27.91;32.70;101842.25;5007150;28;20493;-64
2023/06/14 10:52:35;;;;;;;3.33;1.60;;;;;;;27.66;33.79;101838.25;5006667;28;20030;-65
2023/06/14 10:55:10;;;;;;;6.47;1.73;;;;;;;27.91;32.70;101844.97;5006958;28;20484;-65
2023/06/14 10:57:37;;;;;;;2.28;1.70;;;;;;;27.38;33.81;101847.00;5007510;28;20508;-65
2023/06/14 11:00:17;;;;;;;2.72;1.80;;;;;;;27.83;32.12;101844.81;5006831;28;20033;-65
2023/06/14 11:02:57;;;;;;;6.28;1.73;;;;;;;27.68;32.91;101839.81;5007047;28;20041;-65
2023/06/14 11:05:27;;;;;;;3.83;1.50;;;;;;;27.67;33.38;101837.25;5074947;28;20097;-66
2023/06/14 11:08:05;;;;;;;2.15;1.55;;;;;;;27.73;34.54;101831.28;5073784;28;20026;-65
2023/06/14 11:10:39;;;;;;;3.63;1.63;;;;;;;27.90;33.64;101845.09;5007077;28;20026;-65
2023/06/14 11:13:06;;;;;;;3.42;1.80;;;;;;;27.85;34.16;101834.72;5006374;28;20482;-66
2023/06/14 11:15:32;;;;;;;5.03;1.70;;;;;;;28.25;32.67;101833.66;5007036;28;20040;-65
2023/06/14 11:18:00;;;;;;;6.78;1.50;;;;;;;28.57;31.54;101833.47;5006382;28;20096;-65
2023/06/14 11:20:26;;;;;;;5.53;1.60;;;;;;;28.38;30.42;101830.66;5006662;28;20030;-66
2023/06/14 11:22:52;;;;;;;3.97;1.60;;;;;;;28.58;29.72;101833.34;5018750;28;20485;-65